createdAt,value
2022-08-17T00:01:51.595Z,25.50
2022-08-17T00:04:21.093Z,26.42
2022-08-17T00:06:50.168Z,19.35
2022-08-17T00:09:19.355Z,19.00
2022-08-17T00:12:34.883Z,22.80
2022-08-17T00:14:37.496Z,22.77
2022-08-17T00:17:06.457Z,18.85
2022-08-17T00:19:34.200Z,21.42
2022-08-17T00:22:32.353Z,24.35
2022-08-17T00:24:51.001Z,22.63
2022-08-17T00:27:19.437Z,25.27
2022-08-17T00:29:47.128Z,26.60
2022-08-17T00:33:14.544Z,26.95
2022-08-17T00:35:08.914Z,28.80
2022-08-17T00:37:36.837Z,23.88
2022-08-17T00:40:05.278Z,25.75
2022-08-17T00:42:33.659Z,22.50
2022-08-17T00:45:01.463Z,25.95
2022-08-17T00:47:29.072Z,20.05
2022-08-17T00:49:56.728Z,23.08
2022-08-17T00:52:30.383Z,22.98
2022-08-17T00:54:59.290Z,27.20
2022-08-17T00:57:31.098Z,30.63
2022-08-17T01:00:09.213Z,24.42
2022-08-17T01:02:42.497Z,21.02
2022-08-17T01:05:21.014Z,21.48
2022-08-17T01:07:52.941Z,23.23
2022-08-17T01:11:00.533Z,21.55
2022-08-17T01:13:16.082Z,23.52
2022-08-17T01:15:48.778Z,26.08
2022-08-17T01:18:17.023Z,27.67
2022-08-17T01:20:50.873Z,24.55
2022-08-17T01:23:21.403Z,24.33
2022-08-17T01:25:59.805Z,26.98
2022-08-17T01:28:53.178Z,23.63
2022-08-17T01:31:18.797Z,23.83
2022-08-17T01:33:46.429Z,22.95
2022-08-17T01:36:14.384Z,23.60
2022-08-17T01:38:42.183Z,23.48
2022-08-17T01:41:13.520Z,28.05
2022-08-17T01:43:57.648Z,26.27
2022-08-17T01:46:31.579Z,29.58
2022-08-17T01:49:01.350Z,25.98
2022-08-17T01:51:33.076Z,27.70
2022-08-17T01:54:07.804Z,30.92
2022-08-17T01:56:39.747Z,23.67
2022-08-17T01:59:07.465Z,28.70
2022-08-17T02:01:35.885Z,25.83
2022-08-17T02:04:05.613Z,26.27
2022-08-17T02:06:52.474Z,28.40
2022-08-17T02:09:25.798Z,22.25
2022-08-17T02:11:56.312Z,26.85
2022-08-17T02:14:25.806Z,24.65
2022-08-17T02:16:54.462Z,23.70
2022-08-17T02:19:22.279Z,27.85
2022-08-17T02:21:51.650Z,23.60
2022-08-17T02:24:59.901Z,24.70
2022-08-17T02:27:22.348Z,31.27
2022-08-17T02:29:50.021Z,23.15
2022-08-17T02:32:27.595Z,26.77
2022-08-17T02:34:57.560Z,23.35
2022-08-17T02:37:26.780Z,25.17
2022-08-17T02:39:57.144Z,27.52
2022-08-17T02:42:33.977Z,28.63
2022-08-17T02:45:03.885Z,30.63
2022-08-17T02:47:31.525Z,26.60
2022-08-17T02:49:59.294Z,24.70
2022-08-17T02:52:43.121Z,26.02
2022-08-17T02:55:23.935Z,29.35
2022-08-17T02:57:53.147Z,28.90
2022-08-17T03:00:30.195Z,31.33
2022-08-17T03:02:57.848Z,28.85
2022-08-17T03:05:28.059Z,32.22
2022-08-17T03:07:56.785Z,30.08
2022-08-17T03:10:25.544Z,36.60
2022-08-17T03:12:54.290Z,32.55
2022-08-17T03:15:28.933Z,29.17
2022-08-17T03:17:57.812Z,28.23
2022-08-17T03:20:27.104Z,28.27
2022-08-17T03:23:01.766Z,29.10
2022-08-17T03:25:36.661Z,28.60
2022-08-17T03:28:07.046Z,36.33
2022-08-17T03:30:36.216Z,39.70
2022-08-17T03:33:06.612Z,35.83
2022-08-17T03:35:36.491Z,29.58
2022-08-17T03:38:04.849Z,30.70
2022-08-17T03:40:55.026Z,25.55
2022-08-17T03:43:22.600Z,27.65
2022-08-17T03:46:19.986Z,26.58
2022-08-17T03:49:17.630Z,28.85
2022-08-17T03:52:04.057Z,35.28
2022-08-17T03:54:50.325Z,37.85
2022-08-17T03:57:19.201Z,40.88
2022-08-17T03:59:47.981Z,35.00
2022-08-17T04:02:19.288Z,30.58
2022-08-17T04:04:47.106Z,33.00
2022-08-17T04:07:14.668Z,33.95
2022-08-17T04:09:43.062Z,31.15
2022-08-17T04:12:11.292Z,31.52
2022-08-17T04:14:52.909Z,32.08
2022-08-17T04:17:24.773Z,37.00
2022-08-17T04:19:53.654Z,32.38
2022-08-17T04:22:30.424Z,36.80
2022-08-17T04:25:06.488Z,38.72
2022-08-17T04:27:34.257Z,30.55
2022-08-17T04:30:02.637Z,35.38
2022-08-17T04:33:03.747Z,32.40
2022-08-17T04:35:24.174Z,32.63
2022-08-17T04:37:52.035Z,33.63
2022-08-17T04:40:39.951Z,38.85
2022-08-17T04:43:18.790Z,34.83
2022-08-17T04:45:55.477Z,35.88
2022-08-17T04:48:36.532Z,32.15
2022-08-17T04:51:10.004Z,35.97
2022-08-17T04:53:43.124Z,33.40
2022-08-17T04:56:16.750Z,32.88
2022-08-17T04:58:46.532Z,41.65
2022-08-17T05:01:15.633Z,36.83
2022-08-17T05:03:44.004Z,37.83
2022-08-17T05:06:11.811Z,30.17
2022-08-17T05:08:40.038Z,48.28
2022-08-17T05:11:08.418Z,34.88
2022-08-17T05:13:36.967Z,40.38
2022-08-17T05:16:04.988Z,36.22
2022-08-17T05:18:33.184Z,36.03
2022-08-17T05:21:02.293Z,35.58
2022-08-17T05:23:37.860Z,36.90
2022-08-17T05:26:26.495Z,37.55
2022-08-17T05:28:59.621Z,46.05
2022-08-17T05:31:29.388Z,47.88
2022-08-17T05:33:57.795Z,44.35
2022-08-17T05:36:42.368Z,42.05
2022-08-17T05:39:16.452Z,43.78
2022-08-17T05:41:47.861Z,42.58
2022-08-17T05:44:16.419Z,49.38
2022-08-17T05:46:49.995Z,45.63
2022-08-17T05:49:22.706Z,46.97
2022-08-17T05:51:56.281Z,38.80
2022-08-17T05:54:32.272Z,39.58
2022-08-17T05:57:28.015Z,52.47
2022-08-17T06:00:33.979Z,42.30
2022-08-17T06:03:40.207Z,44.70
2022-08-17T06:06:34.996Z,48.60
2022-08-17T06:09:14.706Z,47.50
2022-08-17T06:12:00.435Z,46.60
2022-08-17T06:14:55.830Z,44.30
2022-08-17T06:17:27.080Z,49.33
2022-08-17T06:20:03.006Z,49.97
2022-08-17T06:22:36.642Z,51.17
2022-08-17T06:25:34.919Z,53.35
2022-08-17T06:28:13.709Z,52.63
2022-08-17T06:31:00.819Z,50.15
2022-08-17T06:33:36.003Z,57.47
2022-08-17T06:36:29.214Z,49.33
2022-08-17T06:39:24.359Z,46.42
2022-08-17T06:42:00.834Z,49.53
2022-08-17T06:44:43.651Z,50.40
2022-08-17T06:47:28.465Z,50.58
2022-08-17T06:50:37.753Z,66.15
2022-08-17T06:53:22.305Z,71.38
2022-08-17T06:56:06.796Z,67.63
2022-08-17T06:58:37.394Z,73.28
2022-08-17T07:01:09.859Z,77.85
2022-08-17T07:04:05.119Z,77.70
2022-08-17T07:06:52.684Z,73.13
2022-08-17T07:09:26.337Z,85.50
2022-08-17T07:12:03.167Z,79.25
2022-08-17T07:14:36.582Z,78.20
2022-08-17T07:17:15.945Z,70.40
2022-08-17T07:19:47.636Z,87.20
2022-08-17T07:22:28.090Z,76.18
2022-08-17T07:24:59.867Z,84.85
2022-08-17T07:27:31.090Z,81.55
2022-08-17T07:30:17.509Z,78.45
2022-08-17T07:33:08.401Z,85.50
2022-08-17T07:35:43.910Z,75.25
2022-08-17T07:38:25.259Z,86.57
2022-08-17T07:41:05.173Z,83.38
2022-08-17T07:43:41.779Z,77.70
2022-08-17T07:46:53.957Z,94.60
2022-08-17T07:49:39.344Z,83.28
2022-08-17T07:52:48.260Z,104.65
2022-08-17T07:54:59.244Z,105.72
2022-08-17T07:57:32.415Z,102.43
2022-08-17T08:00:00.026Z,100.30
2022-08-17T08:02:34.357Z,108.43
2022-08-17T08:05:29.962Z,102.88
2022-08-17T08:08:36.743Z,102.75
2022-08-17T08:11:11.525Z,107.78
2022-08-17T08:13:43.843Z,105.07
2022-08-17T08:16:17.898Z,103.55
2022-08-17T08:18:54.392Z,111.55
2022-08-17T08:21:44.769Z,109.28
2022-08-17T08:24:34.724Z,97.93
2022-08-17T08:27:25.332Z,103.15
2022-08-17T08:30:12.349Z,102.78
2022-08-17T08:33:09.680Z,97.63
2022-08-17T08:37:14.761Z,105.03
2022-08-17T08:39:10.338Z,108.68
2022-08-17T08:41:48.387Z,106.90
2022-08-17T08:45:00.853Z,92.20
2022-08-17T08:47:44.280Z,101.40
2022-08-17T08:50:38.769Z,105.38
2022-08-17T08:53:19.006Z,101.88
2022-08-17T08:56:05.022Z,89.20
2022-08-17T08:58:42.703Z,79.57
2022-08-17T09:01:21.142Z,91.75
2022-08-17T09:04:24.238Z,81.72
2022-08-17T09:07:26.211Z,71.97
2022-08-17T09:10:14.040Z,73.25
2022-08-17T09:13:09.946Z,72.97
2022-08-17T09:15:46.683Z,71.55
2022-08-17T09:19:02.280Z,61.10
2022-08-17T09:21:13.905Z,70.38
2022-08-17T09:24:14.660Z,63.38
2022-08-17T09:27:13.411Z,63.55
2022-08-17T09:29:49.583Z,58.95
2022-08-17T09:32:22.520Z,52.33
2022-08-17T09:34:54.814Z,55.28
2022-08-17T09:37:26.148Z,50.45
2022-08-17T09:40:17.538Z,49.38
2022-08-17T09:42:56.230Z,50.90
2022-08-17T09:45:32.365Z,52.15
2022-08-17T09:48:07.853Z,49.83
2022-08-17T09:51:03.118Z,50.35
2022-08-17T09:53:31.776Z,48.33
2022-08-17T09:57:18.189Z,47.72
2022-08-17T10:00:16.689Z,43.47
2022-08-17T10:03:09.667Z,38.55
2022-08-17T10:06:07.841Z,46.17
2022-08-17T10:08:55.336Z,44.33
2022-08-17T10:11:51.497Z,41.28
2022-08-17T10:14:57.124Z,41.40
2022-08-17T10:18:04.060Z,40.67
2022-08-17T10:21:15.444Z,37.40
2022-08-17T10:24:04.543Z,36.20
2022-08-17T10:26:55.982Z,43.95
2022-08-17T10:29:49.114Z,38.25
2022-08-17T10:32:40.925Z,39.30
2022-08-17T10:35:20.581Z,42.65
2022-08-17T10:38:27.698Z,39.03
2022-08-17T10:41:13.229Z,41.50
2022-08-17T10:44:37.346Z,39.67
2022-08-17T10:47:11.399Z,41.00
2022-08-17T10:49:47.821Z,36.20
2022-08-17T10:52:27.753Z,38.85
2022-08-17T10:54:58.762Z,36.72
2022-08-17T10:57:26.890Z,36.40
2022-08-17T10:59:56.913Z,38.35
2022-08-17T11:02:54.301Z,33.25
2022-08-17T11:05:43.751Z,35.67
2022-08-17T11:08:26.337Z,33.85
2022-08-17T11:11:12.570Z,34.70
2022-08-17T11:14:17.760Z,31.73
2022-08-17T11:17:09.213Z,34.95
2022-08-17T11:19:51.209Z,34.38
2022-08-17T11:22:37.663Z,33.13
2022-08-17T11:25:38.456Z,34.97
2022-08-17T11:30:48.718Z,25.95
2022-08-17T11:33:36.764Z,28.08
2022-08-17T11:36:24.452Z,30.00
2022-08-17T11:39:20.929Z,28.67
2022-08-17T11:41:56.338Z,30.00
2022-08-17T11:44:51.663Z,27.58
2022-08-17T11:48:23.747Z,33.17
2022-08-17T11:51:13.172Z,33.70
2022-08-17T11:54:14.659Z,32.28
2022-08-17T11:56:51.168Z,34.03
2022-08-17T11:59:46.010Z,36.30
2022-08-17T12:02:27.992Z,35.67
2022-08-17T12:05:17.491Z,29.67
2022-08-17T12:07:51.943Z,33.42
2022-08-17T12:10:23.670Z,26.10
2022-08-17T12:12:54.076Z,28.42
2022-08-17T12:17:57.184Z,31.98
2022-08-17T12:20:40.293Z,32.00
2022-08-17T12:23:17.297Z,26.80
2022-08-17T12:25:59.355Z,29.95
2022-08-17T12:28:34.826Z,28.50
2022-08-17T12:31:27.338Z,29.02
2022-08-17T12:33:55.322Z,26.85
2022-08-17T12:36:25.350Z,30.08
2022-08-17T12:39:14.272Z,28.65
2022-08-17T12:41:47.023Z,25.90
2022-08-17T12:44:16.752Z,24.88
2022-08-17T12:47:20.984Z,20.45
2022-08-17T12:49:52.929Z,26.15
2022-08-17T12:55:06.873Z,24.50
2022-08-17T12:57:42.678Z,22.10
2022-08-17T13:00:18.307Z,23.13
2022-08-17T13:03:05.946Z,19.63
2022-08-17T13:05:55.529Z,19.20
2022-08-17T13:08:33.695Z,18.23
2022-08-17T13:11:11.509Z,19.05
2022-08-17T13:13:43.093Z,18.77
2022-08-17T13:16:14.347Z,17.95
2022-08-17T13:18:41.939Z,15.93
2022-08-17T13:21:27.405Z,23.65
2022-08-17T13:24:13.855Z,19.55
2022-08-17T13:26:46.629Z,17.83
2022-08-17T13:29:39.266Z,19.70
2022-08-17T13:32:13.167Z,21.33
2022-08-17T13:35:14.931Z,18.08
2022-08-17T13:37:40.665Z,17.80
2022-08-17T13:40:10.706Z,16.52
2022-08-17T13:42:52.764Z,18.45
2022-08-17T13:45:36.666Z,14.20
2022-08-17T13:48:11.947Z,16.08
2022-08-17T13:50:57.267Z,12.20
2022-08-17T13:53:50.857Z,9.65
2022-08-17T13:56:37.891Z,10.57
2022-08-17T13:59:13.891Z,9.45
2022-08-17T14:01:52.573Z,12.77
2022-08-17T14:04:29.365Z,9.25
2022-08-17T14:07:00.205Z,10.65
2022-08-17T14:09:37.396Z,10.48
2022-08-17T14:12:10.674Z,10.32
2022-08-17T14:14:39.784Z,8.50
2022-08-17T14:17:07.966Z,8.57
2022-08-17T14:19:36.562Z,11.55
2022-08-17T14:22:08.839Z,8.52
2022-08-17T14:24:44.589Z,9.73
2022-08-17T14:27:12.797Z,10.07
2022-08-17T14:29:41.833Z,9.35
2022-08-17T14:32:20.441Z,7.22
2022-08-17T14:34:49.645Z,13.68
2022-08-17T14:37:19.455Z,10.30
2022-08-17T14:39:47.819Z,10.57
2022-08-17T14:42:17.819Z,12.82
2022-08-17T14:44:45.839Z,9.57
2022-08-17T14:47:13.910Z,9.98
2022-08-17T14:49:42.673Z,10.40
2022-08-17T14:52:13.533Z,11.07
2022-08-17T14:54:45.829Z,8.45
2022-08-17T14:57:34.023Z,11.60
2022-08-17T15:00:03.011Z,11.35
2022-08-17T15:02:31.309Z,10.38
2022-08-17T15:05:04.804Z,10.32
2022-08-17T15:07:32.558Z,12.02
2022-08-17T15:10:01.420Z,12.25
2022-08-17T15:12:34.093Z,11.18
2022-08-17T15:15:05.337Z,13.23
2022-08-17T15:17:44.446Z,13.20
2022-08-17T15:20:15.802Z,11.47
2022-08-17T15:22:45.311Z,11.35
2022-08-17T15:25:13.231Z,10.65
2022-08-17T15:27:41.287Z,10.07
2022-08-17T15:30:10.074Z,10.30
2022-08-17T15:32:40.962Z,9.13
2022-08-17T15:35:19.314Z,12.38
2022-08-17T15:38:11.817Z,9.20
2022-08-17T15:40:46.496Z,9.50
2022-08-17T15:43:27.338Z,9.80
2022-08-17T15:46:12.587Z,11.32
2022-08-17T15:48:42.619Z,10.43
2022-08-17T15:51:22.003Z,8.50
2022-08-17T15:53:59.290Z,9.32
2022-08-17T15:56:32.802Z,9.23
2022-08-17T15:59:00.518Z,11.05
2022-08-17T16:02:33.627Z,8.52
2022-08-17T16:04:30.545Z,10.63
2022-08-17T16:07:00.343Z,8.70
2022-08-17T16:09:28.655Z,8.43
2022-08-17T16:11:56.764Z,8.43
2022-08-17T16:14:33.946Z,11.15
2022-08-17T16:17:04.806Z,11.10
2022-08-17T16:19:52.818Z,10.18
2022-08-17T16:22:41.071Z,10.05
2022-08-17T16:25:51.962Z,9.15
2022-08-17T16:28:18.450Z,10.90
2022-08-17T16:30:46.234Z,10.73
2022-08-17T16:33:15.136Z,10.50
2022-08-17T16:35:42.968Z,11.05
2022-08-17T16:38:12.422Z,11.20
2022-08-17T16:40:42.446Z,10.98
2022-08-17T16:43:12.023Z,8.97
2022-08-17T16:45:40.824Z,11.68
2022-08-17T16:48:09.923Z,9.50
2022-08-17T16:50:37.658Z,14.73
2022-08-17T16:53:18.252Z,14.73
2022-08-17T16:55:48.060Z,14.27
2022-08-17T16:58:16.186Z,9.90
2022-08-17T17:00:45.267Z,9.10
2022-08-17T17:03:19.215Z,11.65
2022-08-17T17:06:15.744Z,12.68
2022-08-17T17:08:57.390Z,8.52
2022-08-17T17:11:31.251Z,9.60
2022-08-17T17:14:03.030Z,10.60
2022-08-17T17:16:33.224Z,12.13
2022-08-17T17:19:05.171Z,12.98
2022-08-17T17:22:03.795Z,12.68
2022-08-17T17:24:50.354Z,15.25
2022-08-17T17:27:23.786Z,13.50
2022-08-17T17:30:24.265Z,9.82
2022-08-17T17:33:04.914Z,12.20
2022-08-17T17:38:14.164Z,11.27
2022-08-17T17:40:45.752Z,11.30
2022-08-17T17:43:37.680Z,12.00
2022-08-17T17:46:27.293Z,13.13
2022-08-17T17:48:58.011Z,16.10
2022-08-17T17:52:03.568Z,14.45
2022-08-17T17:54:42.821Z,17.52
2022-08-17T17:57:32.561Z,16.50
2022-08-17T18:00:00.416Z,18.88
2022-08-17T18:02:54.895Z,15.10
2022-08-17T18:05:53.160Z,16.80
2022-08-17T18:08:49.431Z,14.07
2022-08-17T18:11:33.085Z,22.35
2022-08-17T18:14:24.898Z,16.58
2022-08-17T18:16:56.134Z,16.92
2022-08-17T18:19:25.812Z,21.05
2022-08-17T18:22:02.905Z,17.35
2022-08-17T18:24:33.739Z,15.55
2022-08-17T18:29:47.154Z,20.15
2022-08-17T18:32:29.252Z,22.40
2022-08-17T18:35:08.754Z,18.90
2022-08-17T18:37:45.057Z,21.55
2022-08-17T18:40:21.282Z,26.52
2022-08-17T18:43:03.066Z,20.83
2022-08-17T18:45:46.577Z,17.90
2022-08-17T18:48:33.392Z,15.93
2022-08-17T18:51:26.336Z,18.30
2022-08-17T18:54:18.275Z,22.70
2022-08-17T18:56:59.951Z,20.30
2022-08-17T18:59:29.560Z,19.58
2022-08-17T19:02:03.246Z,23.73
2022-08-17T19:04:53.304Z,19.83
2022-08-17T19:07:31.583Z,20.83
2022-08-17T19:10:08.858Z,20.42
2022-08-17T19:13:12.543Z,18.73
2022-08-17T19:16:13.717Z,17.27
2022-08-17T19:18:48.358Z,20.33
2022-08-17T19:21:33.324Z,21.63
2022-08-17T19:24:19.368Z,21.60
2022-08-17T19:26:56.336Z,20.65
2022-08-17T19:29:36.940Z,18.33
2022-08-17T19:32:07.604Z,17.90
2022-08-17T19:34:37.825Z,18.55
2022-08-17T19:37:39.000Z,20.73
2022-08-17T19:40:24.474Z,19.10
2022-08-17T19:43:17.013Z,17.85
2022-08-17T19:45:56.233Z,18.83
2022-08-17T19:48:36.103Z,19.98
2022-08-17T19:51:17.834Z,16.75
2022-08-17T19:54:06.779Z,18.85
2022-08-17T19:57:02.420Z,19.25
2022-08-17T19:59:41.301Z,20.17
2022-08-17T20:02:48.551Z,15.13
2022-08-17T20:05:44.217Z,17.92
2022-08-17T20:08:28.127Z,16.65
2022-08-17T20:11:18.574Z,20.05
2022-08-17T20:14:11.893Z,16.38
2022-08-17T20:16:39.375Z,23.67
2022-08-17T20:19:27.784Z,20.77
2022-08-17T20:22:17.546Z,16.15
2022-08-17T20:24:51.012Z,21.15
2022-08-17T20:27:48.449Z,18.35
2022-08-17T20:30:23.260Z,22.80
2022-08-17T20:32:56.107Z,20.67
2022-08-17T20:35:32.875Z,19.88
2022-08-17T20:38:12.930Z,23.35
2022-08-17T20:41:00.992Z,19.20
2022-08-17T20:43:34.410Z,20.75
2022-08-17T20:46:26.793Z,19.80
2022-08-17T20:48:59.545Z,20.95
2022-08-17T20:51:29.851Z,18.88
2022-08-17T20:54:06.731Z,21.10
2022-08-17T20:56:43.465Z,31.13
2022-08-17T20:59:28.495Z,28.20
2022-08-17T21:02:18.604Z,21.58
2022-08-17T21:04:54.827Z,21.48
2022-08-17T21:07:52.379Z,27.20
2022-08-17T21:10:26.073Z,27.20
2022-08-17T21:13:01.708Z,21.33
2022-08-17T21:16:08.855Z,22.80
2022-08-17T21:19:02.456Z,25.05
2022-08-17T21:22:10.522Z,27.38
2022-08-17T21:25:23.018Z,24.60
2022-08-17T21:28:10.689Z,25.02
2022-08-17T21:30:40.998Z,24.98
2022-08-17T21:33:29.168Z,23.15
2022-08-17T21:35:59.809Z,23.45
2022-08-17T21:39:02.530Z,23.05
2022-08-17T21:41:34.233Z,26.50
2022-08-17T21:44:13.353Z,24.90
2022-08-17T21:46:46.742Z,21.85
2022-08-17T21:49:18.321Z,23.65
2022-08-17T21:51:54.421Z,23.42
2022-08-17T21:54:38.840Z,26.15
2022-08-17T21:57:16.457Z,20.80
2022-08-17T21:59:44.966Z,26.08
2022-08-17T22:02:21.551Z,22.73
2022-08-17T22:04:59.628Z,24.20
2022-08-17T22:07:38.312Z,21.40
2022-08-17T22:10:26.195Z,24.95
2022-08-17T22:13:19.759Z,20.67
2022-08-17T22:16:27.855Z,22.30
2022-08-17T22:18:59.016Z,21.67
2022-08-17T22:21:27.315Z,20.00
2022-08-17T22:24:15.195Z,26.77
2022-08-17T22:27:01.554Z,21.20
2022-08-17T22:29:57.141Z,23.58
2022-08-17T22:32:34.992Z,23.13
2022-08-17T22:35:35.745Z,23.40
2022-08-17T22:38:18.792Z,21.92
2022-08-17T22:40:55.311Z,22.85
2022-08-17T22:43:28.833Z,22.25
2022-08-17T22:45:59.764Z,25.48
2022-08-17T22:48:29.383Z,23.20
2022-08-17T22:51:12.220Z,22.15
2022-08-17T22:54:08.144Z,22.00
2022-08-17T22:56:56.030Z,22.00
2022-08-17T22:59:54.622Z,20.60
2022-08-17T23:02:26.153Z,25.08
2022-08-17T23:05:13.797Z,24.20
2022-08-17T23:07:43.313Z,30.23
2022-08-17T23:10:12.890Z,25.02
2022-08-17T23:12:40.911Z,23.98
2022-08-17T23:15:15.425Z,19.55
2022-08-17T23:17:45.357Z,23.92
2022-08-17T23:20:15.202Z,21.33
2022-08-17T23:22:51.677Z,26.05
2022-08-17T23:25:32.300Z,20.55
2022-08-17T23:28:01.919Z,23.13
2022-08-17T23:30:31.564Z,22.70
2022-08-17T23:33:05.974Z,23.88
2022-08-17T23:35:39.824Z,21.23
2022-08-17T23:38:13.026Z,24.35
2022-08-17T23:40:41.210Z,23.83
2022-08-17T23:43:25.279Z,17.27
2022-08-17T23:45:55.183Z,19.58
2022-08-17T23:48:27.816Z,18.52
2022-08-17T23:51:05.847Z,15.38
2022-08-17T23:53:36.357Z,20.58
2022-08-17T23:56:10.450Z,18.23
2022-08-17T23:58:42.244Z,18.45
